Time;durP1;ratioP1;P1;durP2;ratioP2;P2;SDS_P1;SDS_P2;PMS_P1;PMS_P2;Temp;Humidity;BMP_temperature;BMP_pressure;BME280_temperature;BME280_humidity;BME280_pressure;Samples;Min_cycle;Max_cycle;Signal;HPM_P1;HPM_P2
2020/12/09 05:53:31;;;;;;;26.65;16.10;;;;;;;;;;5084188;28;20430;-80
2020/12/09 05:56:11;;;;;;;28.55;16.52;;;;;;;;;;5073354;28;20060;-80
2020/12/09 05:58:39;;;;;;;26.42;14.77;;;;;;;;;;5070873;28;20013;-80
2020/12/09 06:03:23;;;;;;;24.33;14.23;;;;;;;;;;5106488;27;20376;-80
2020/12/09 06:06:06;;;;;;;26.80;15.82;;;;;;;;;;5092914;28;20115;-81
2020/12/09 06:08:40;;;;;;;27.77;15.57;;;;;;;;;;5098737;28;20049;-81
2020/12/09 06:11:06;;;;;;;26.50;14.95;;;;;;;;;;5093664;28;21571;-81
2020/12/09 06:13:36;;;;;;;23.50;14.13;;;;;;;;;;5090731;28;20099;-81
2020/12/09 06:16:07;;;;;;;26.13;14.38;;;;;;;;;;5099059;28;20102;-82
2020/12/09 06:21:36;;;;;;;25.88;14.45;;;;;;;;;;5100174;28;20100;-82
2020/12/09 06:30:11;;;;;;;26.95;14.68;;;;;;;;;;5101378;28;20208;-82
2020/12/09 06:32:51;;;;;;;24.17;14.15;;;;;;;;;;5100908;28;20035;-79
2020/12/09 06:35:55;;;;;;;28.30;15.30;;;;;;;;;;5103702;28;20080;-81
2020/12/09 06:39:08;;;;;;;23.73;14.45;;;;;;;;;;5095852;28;20029;-81
2020/12/09 06:41:55;;;;;;;25.67;14.77;;;;;;;;;;5069771;28;20063;-80
2020/12/09 06:44:22;;;;;;;26.27;15.02;;;;;;;;;;5096837;28;20420;-81
2020/12/09 06:46:50;;;;;;;24.48;15.15;;;;;;;;;;5097157;28;20575;-81
2020/12/09 06:49:28;;;;;;;25.17;14.55;;;;;;;;;;5096550;28;20025;-81
2020/12/09 06:51:54;;;;;;;27.05;14.32;;;;;;;;;;5093655;28;20099;-81
2020/12/09 06:54:20;;;;;;;28.90;16.90;;;;;;;;;;5094155;28;20028;-80
2020/12/09 06:57:06;;;;;;;28.30;15.63;;;;;;;;;;5102620;28;20088;-81
2020/12/09 06:59:32;;;;;;;28.75;16.40;;;;;;;;;;5096469;28;20035;-81
2020/12/09 07:01:59;;;;;;;25.35;14.88;;;;;;;;;;5100332;28;20020;-80
2020/12/09 07:04:25;;;;;;;27.10;15.10;;;;;;;;;;5098264;28;20493;-81
2020/12/09 07:06:51;;;;;;;25.80;15.45;;;;;;;;;;5090658;28;20109;-80
2020/12/09 07:09:16;;;;;;;27.42;15.50;;;;;;;;;;5090062;28;20020;-81
2020/12/09 07:11:52;;;;;;;28.80;15.25;;;;;;;;;;5088302;28;20031;-80
2020/12/09 07:14:18;;;;;;;24.40;14.10;;;;;;;;;;5087110;28;20134;-80
2020/12/09 07:19:03;;;;;;;27.13;15.43;;;;;;;;;;5095160;27;20369;-81
2020/12/09 07:21:29;;;;;;;29.35;16.65;;;;;;;;;;5078208;28;20466;-81
2020/12/09 07:23:59;;;;;;;27.83;15.07;;;;;;;;;;5083467;28;20033;-81
2020/12/09 07:26:25;;;;;;;29.73;16.65;;;;;;;;;;5072017;28;20032;-82
2020/12/09 07:28:51;;;;;;;30.38;16.83;;;;;;;;;;5068840;28;20023;-82
2020/12/09 07:31:17;;;;;;;27.00;16.48;;;;;;;;;;5075208;28;20032;-81
2020/12/09 07:33:44;;;;;;;25.17;14.60;;;;;;;;;;5066512;28;20020;-81
2020/12/09 07:36:11;;;;;;;29.83;15.93;;;;;;;;;;5074691;28;20103;-81
2020/12/09 07:38:37;;;;;;;29.77;15.57;;;;;;;;;;5071134;28;20068;-81
2020/12/09 07:41:03;;;;;;;26.38;14.57;;;;;;;;;;5076306;28;20055;-81
2020/12/09 07:43:29;;;;;;;24.70;14.32;;;;;;;;;;5082333;28;20535;-81
2020/12/09 07:46:02;;;;;;;26.08;14.85;;;;;;;;;;5073298;28;20494;-81
2020/12/09 07:48:30;;;;;;;22.50;13.02;;;;;;;;;;5066067;28;20037;-80
2020/12/09 07:50:56;;;;;;;30.27;17.38;;;;;;;;;;5070736;28;20105;-81
2020/12/09 07:53:22;;;;;;;91.93;38.28;;;;;;;;;;5074149;28;20024;-83
2020/12/09 07:55:48;;;;;;;99.28;41.53;;;;;;;;;;5072977;28;20025;-82
2020/12/09 07:58:14;;;;;;;51.70;26.65;;;;;;;;;;5078708;28;20590;-82
2020/12/09 08:00:42;;;;;;;45.85;23.55;;;;;;;;;;5065820;28;20720;-82
2020/12/09 08:03:16;;;;;;;40.55;22.50;;;;;;;;;;5066022;28;20031;-81
2020/12/09 08:05:42;;;;;;;37.28;19.90;;;;;;;;;;5079106;28;20049;-82
2020/12/09 08:08:13;;;;;;;34.85;19.48;;;;;;;;;;5075670;28;20048;-82
2020/12/09 08:10:42;;;;;;;31.98;18.50;;;;;;;;;;5072867;28;20445;-81
2020/12/09 08:13:10;;;;;;;31.90;17.80;;;;;;;;;;5070621;28;20024;-81
2020/12/09 08:15:38;;;;;;;27.63;16.98;;;;;;;;;;5071709;28;20035;-82
2020/12/09 08:18:04;;;;;;;27.00;15.65;;;;;;;;;;5067641;28;20116;-81
2020/12/09 08:20:30;;;;;;;28.60;16.27;;;;;;;;;;5082259;28;20025;-81
2020/12/09 08:22:57;;;;;;;29.63;15.88;;;;;;;;;;5070725;28;20558;-82
2020/12/09 08:25:24;;;;;;;26.33;14.30;;;;;;;;;;5068197;28;20013;-82
2020/12/09 08:27:51;;;;;;;26.33;15.10;;;;;;;;;;5071088;28;20573;-82
2020/12/09 08:32:53;;;;;;;29.65;17.00;;;;;;;;;;5101111;27;20401;-81
2020/12/09 08:35:18;;;;;;;29.38;15.85;;;;;;;;;;5076017;28;20039;-84
2020/12/09 08:37:44;;;;;;;31.67;16.67;;;;;;;;;;5089678;28;20388;-84
2020/12/09 08:40:10;;;;;;;29.40;16.25;;;;;;;;;;5074692;28;20020;-84
2020/12/09 08:42:36;;;;;;;26.95;16.17;;;;;;;;;;5089802;28;20023;-84
2020/12/09 08:45:03;;;;;;;30.90;15.98;;;;;;;;;;5084045;28;20058;-84
2020/12/09 08:47:28;;;;;;;27.67;15.45;;;;;;;;;;5084800;28;20540;-84
2020/12/09 08:49:54;;;;;;;24.80;15.60;;;;;;;;;;5088269;28;20115;-84
2020/12/09 08:52:20;;;;;;;26.98;15.43;;;;;;;;;;5086270;28;20066;-81
2020/12/09 08:57:05;;;;;;;28.77;16.55;;;;;;;;;;5106270;27;20127;-83
2020/12/09 08:59:31;;;;;;;27.65;15.50;;;;;;;;;;5107782;28;20016;-83
2020/12/09 09:01:57;;;;;;;27.15;14.65;;;;;;;;;;5105640;28;20042;-84
2020/12/09 09:04:30;;;;;;;26.15;15.45;;;;;;;;;;5095254;28;20020;-84
2020/12/09 09:06:56;;;;;;;27.77;15.75;;;;;;;;;;5101191;28;20480;-84
2020/12/09 09:09:22;;;;;;;25.00;14.20;;;;;;;;;;5102717;28;20111;-84
2020/12/09 09:11:48;;;;;;;26.85;14.82;;;;;;;;;;5101515;28;20048;-84
2020/12/09 09:14:15;;;;;;;26.58;14.43;;;;;;;;;;5103152;28;20024;-84
2020/12/09 09:16:41;;;;;;;25.42;15.60;;;;;;;;;;5102126;28;20047;-84
2020/12/09 09:19:07;;;;;;;29.92;18.17;;;;;;;;;;5099880;28;20058;-84
2020/12/09 09:21:33;;;;;;;37.67;20.33;;;;;;;;;;5108390;28;20069;-84
2020/12/09 09:23:59;;;;;;;37.65;22.63;;;;;;;;;;5117215;28;20012;-84
2020/12/09 09:26:27;;;;;;;39.42;21.33;;;;;;;;;;5121306;28;20490;-84
2020/12/09 09:28:53;;;;;;;36.40;21.35;;;;;;;;;;5111377;28;20015;-84
2020/12/09 09:31:19;;;;;;;41.55;23.58;;;;;;;;;;5114678;28;20024;-83
2020/12/09 09:36:04;;;;;;;34.08;20.50;;;;;;;;;;5068928;28;20425;-84
2020/12/09 09:38:30;;;;;;;37.05;21.58;;;;;;;;;;5056901;28;20028;-84
2020/12/09 09:40:56;;;;;;;35.70;21.52;;;;;;;;;;5054934;28;20509;-84
2020/12/09 09:45:40;;;;;;;42.72;23.95;;;;;;;;;;5087709;27;20360;-83
2020/12/09 09:48:07;;;;;;;44.40;24.65;;;;;;;;;;5106070;28;20079;-84
2020/12/09 09:50:33;;;;;;;48.22;25.85;;;;;;;;;;5080066;28;20027;-84
2020/12/09 09:52:59;;;;;;;41.50;24.27;;;;;;;;;;5080644;28;20468;-84
2020/12/09 09:55:25;;;;;;;49.28;25.08;;;;;;;;;;5087741;28;20111;-83
2020/12/09 09:57:51;;;;;;;48.42;25.98;;;;;;;;;;5083451;28;20044;-82
2020/12/09 10:00:17;;;;;;;43.20;24.30;;;;;;;;;;5083122;28;20021;-82
2020/12/09 10:02:43;;;;;;;46.75;27.85;;;;;;;;;;5084217;28;20032;-82
2020/12/09 10:05:08;;;;;;;45.17;25.40;;;;;;;;;;5085069;28;20024;-82
2020/12/09 10:07:34;;;;;;;52.10;26.42;;;;;;;;;;5078594;28;20032;-84
2020/12/09 10:10:03;;;;;;;41.50;24.33;;;;;;;;;;5080903;28;20026;-83
2020/12/09 10:12:31;;;;;;;38.55;24.77;;;;;;;;;;5087951;28;20467;-83
2020/12/09 10:14:57;;;;;;;43.10;24.25;;;;;;;;;;5088615;28;20055;-83
2020/12/09 10:17:23;;;;;;;47.50;26.98;;;;;;;;;;5085133;28;20052;-83
2020/12/09 10:19:48;;;;;;;51.63;28.70;;;;;;;;;;5086934;28;20557;-83
2020/12/09 10:22:14;;;;;;;52.97;27.40;;;;;;;;;;5087270;28;20043;-83
2020/12/09 10:24:40;;;;;;;48.90;27.73;;;;;;;;;;5087818;28;20058;-82
2020/12/09 10:27:06;;;;;;;42.60;24.50;;;;;;;;;;5086791;28;20156;-83
2020/12/09 10:29:32;;;;;;;42.22;24.30;;;;;;;;;;5089951;28;20028;-82
2020/12/09 10:31:58;;;;;;;46.92;26.38;;;;;;;;;;5094256;28;20027;-82
2020/12/09 10:34:24;;;;;;;44.67;25.05;;;;;;;;;;5092836;28;20032;-83
2020/12/09 10:36:51;;;;;;;43.92;24.88;;;;;;;;;;5095720;28;20032;-85
2020/12/09 10:39:18;;;;;;;38.45;24.08;;;;;;;;;;5095036;28;20023;-85
2020/12/09 10:41:44;;;;;;;43.90;25.98;;;;;;;;;;5099425;28;20032;-84
2020/12/09 10:44:10;;;;;;;41.40;22.63;;;;;;;;;;5091171;28;20055;-85
2020/12/09 10:46:37;;;;;;;45.30;24.38;;;;;;;;;;5097303;28;20057;-85
2020/12/09 10:49:04;;;;;;;45.45;24.38;;;;;;;;;;5093824;28;20527;-82
2020/12/09 10:51:30;;;;;;;45.80;26.10;;;;;;;;;;5097541;28;20032;-83
2020/12/09 10:53:57;;;;;;;47.53;25.33;;;;;;;;;;5088569;28;20074;-80
2020/12/09 10:56:30;;;;;;;46.33;26.67;;;;;;;;;;5083604;28;20434;-84
2020/12/09 10:58:57;;;;;;;52.25;29.02;;;;;;;;;;5079658;28;20101;-83
2020/12/09 11:01:25;;;;;;;56.08;30.52;;;;;;;;;;5077582;28;20451;-83
2020/12/09 11:03:51;;;;;;;46.03;28.38;;;;;;;;;;5084398;28;20497;-83
2020/12/09 11:06:17;;;;;;;50.53;29.55;;;;;;;;;;5077398;28;20048;-83
2020/12/09 11:08:43;;;;;;;55.50;31.08;;;;;;;;;;5064455;28;20021;-83
2020/12/09 11:11:09;;;;;;;54.45;31.90;;;;;;;;;;5067913;28;20158;-83
2020/12/09 11:13:36;;;;;;;59.20;35.35;;;;;;;;;;5071564;28;20024;-84
2020/12/09 11:16:02;;;;;;;55.80;30.83;;;;;;;;;;5080260;28;20051;-83
2020/12/09 11:18:28;;;;;;;57.30;33.45;;;;;;;;;;5079015;28;20020;-83
2020/12/09 11:20:57;;;;;;;53.55;32.42;;;;;;;;;;5078858;28;20035;-83
2020/12/09 11:23:23;;;;;;;45.58;28.40;;;;;;;;;;5064669;28;20118;-84
2020/12/09 11:25:49;;;;;;;51.38;29.33;;;;;;;;;;5071344;28;20042;-83
2020/12/09 11:28:15;;;;;;;46.67;26.60;;;;;;;;;;5081569;28;20012;-82
2020/12/09 11:30:41;;;;;;;47.00;26.27;;;;;;;;;;5082968;28;20761;-79
2020/12/09 11:33:07;;;;;;;42.03;25.75;;;;;;;;;;5085023;28;20024;-82
2020/12/09 11:35:32;;;;;;;53.78;27.65;;;;;;;;;;5078765;28;20060;-82
2020/12/09 11:37:58;;;;;;;51.40;30.23;;;;;;;;;;5066894;28;20036;-82
2020/12/09 11:40:25;;;;;;;47.00;28.42;;;;;;;;;;5071585;28;20032;-82
2020/12/09 11:42:52;;;;;;;48.33;28.17;;;;;;;;;;5075349;28;20025;-83
2020/12/09 11:45:18;;;;;;;45.95;26.50;;;;;;;;;;5070293;28;20017;-83
2020/12/09 11:47:44;;;;;;;39.67;24.25;;;;;;;;;;5069054;28;20024;-83
2020/12/09 11:50:10;;;;;;;47.92;25.73;;;;;;;;;;5074036;28;20095;-83
2020/12/09 11:52:36;;;;;;;39.65;22.30;;;;;;;;;;5069915;28;20048;-83
2020/12/09 11:55:03;;;;;;;43.13;24.08;;;;;;;;;;5069676;28;20040;-83
2020/12/09 11:57:29;;;;;;;44.97;25.27;;;;;;;;;;5070251;28;20469;-83
2020/12/09 11:59:54;;;;;;;37.00;23.00;;;;;;;;;;5071548;28;20028;-83
2020/12/09 12:02:20;;;;;;;40.25;23.55;;;;;;;;;;5083246;22;20167;-79
2020/12/09 12:04:49;;;;;;;36.45;21.90;;;;;;;;;;5065698;28;20472;-80
2020/12/09 12:07:15;;;;;;;38.83;22.65;;;;;;;;;;5057938;28;20080;-80
2020/12/09 12:09:42;;;;;;;43.15;21.80;;;;;;;;;;5063340;28;20032;-79
2020/12/09 12:12:09;;;;;;;38.20;23.80;;;;;;;;;;5062449;28;20017;-80
2020/12/09 12:14:35;;;;;;;38.85;23.27;;;;;;;;;;5053727;28;20029;-80
2020/12/09 12:17:01;;;;;;;43.50;27.77;;;;;;;;;;5064332;28;20028;-79
2020/12/09 12:19:27;;;;;;;44.58;28.83;;;;;;;;;;5065128;28;20421;-79
2020/12/09 12:21:53;;;;;;;50.85;29.83;;;;;;;;;;5066564;28;20025;-79
2020/12/09 12:24:19;;;;;;;50.85;31.95;;;;;;;;;;5068403;28;20031;-80
2020/12/09 12:26:45;;;;;;;40.63;25.92;;;;;;;;;;5066954;28;20366;-80
2020/12/09 12:29:11;;;;;;;43.08;23.38;;;;;;;;;;5059864;28;20017;-80
2020/12/09 12:31:37;;;;;;;35.72;20.85;;;;;;;;;;5057613;28;20035;-79
2020/12/09 12:34:03;;;;;;;31.70;18.70;;;;;;;;;;5058696;28;20078;-79
2020/12/09 12:36:30;;;;;;;30.95;17.77;;;;;;;;;;5060668;28;20032;-80
2020/12/09 12:38:56;;;;;;;27.83;17.23;;;;;;;;;;5055748;28;20039;-80
2020/12/09 12:41:22;;;;;;;26.20;15.75;;;;;;;;;;5054505;28;20032;-80
2020/12/09 12:43:48;;;;;;;24.25;15.27;;;;;;;;;;5048563;28;20096;-81
2020/12/09 12:46:14;;;;;;;25.73;15.13;;;;;;;;;;5049956;28;20029;-82
2020/12/09 12:48:40;;;;;;;29.52;16.48;;;;;;;;;;5050501;28;20025;-81
2020/12/09 12:51:06;;;;;;;22.63;13.95;;;;;;;;;;5048181;28;20059;-81
2020/12/09 12:53:32;;;;;;;22.27;13.00;;;;;;;;;;5044998;28;20052;-79
2020/12/09 12:55:58;;;;;;;28.90;15.70;;;;;;;;;;5051349;28;20079;-80
2020/12/09 12:58:25;;;;;;;22.42;13.70;;;;;;;;;;5058014;28;20482;-80
2020/12/09 13:00:51;;;;;;;24.50;14.60;;;;;;;;;;5061607;28;20100;-79
2020/12/09 13:03:17;;;;;;;22.85;14.48;;;;;;;;;;5061054;28;20432;-78
2020/12/09 13:05:44;;;;;;;20.33;12.38;;;;;;;;;;5061945;28;20393;-80
2020/12/09 13:08:10;;;;;;;22.75;13.77;;;;;;;;;;5066374;28;20017;-80
2020/12/09 13:10:36;;;;;;;19.23;12.00;;;;;;;;;;5063546;28;20021;-80
2020/12/09 13:13:02;;;;;;;22.83;12.27;;;;;;;;;;5060078;28;20029;-80
2020/12/09 13:15:28;;;;;;;32.42;20.02;;;;;;;;;;5062642;28;20035;-80
2020/12/09 13:17:54;;;;;;;27.33;16.95;;;;;;;;;;5062781;28;20409;-80
2020/12/09 13:20:20;;;;;;;36.78;20.80;;;;;;;;;;5062070;28;20032;-80
2020/12/09 13:22:46;;;;;;;70.60;36.55;;;;;;;;;;5063207;28;20029;-80
2020/12/09 13:25:12;;;;;;;37.35;20.95;;;;;;;;;;5061247;28;20116;-80
2020/12/09 13:27:38;;;;;;;65.20;32.78;;;;;;;;;;5065379;28;20027;-80
2020/12/09 13:30:05;;;;;;;153.27;78.72;;;;;;;;;;5066291;28;20040;-80
2020/12/09 13:32:31;;;;;;;93.35;51.92;;;;;;;;;;5057708;28;20031;-80
2020/12/09 13:39:34;;;;;;;20.05;11.50;;;;;;;;;;5093368;27;20976;-81
2020/12/09 13:42:00;;;;;;;15.93;10.55;;;;;;;;;;5075468;28;20036;-81
2020/12/09 13:44:26;;;;;;;16.52;9.80;;;;;;;;;;5065594;28;20033;-79
2020/12/09 13:46:51;;;;;;;14.65;8.95;;;;;;;;;;5068059;28;20029;-78
2020/12/09 13:49:17;;;;;;;15.40;9.32;;;;;;;;;;5066426;28;20044;-83
2020/12/09 13:51:43;;;;;;;15.77;9.90;;;;;;;;;;5074346;28;20036;-80
2020/12/09 13:54:09;;;;;;;14.63;8.75;;;;;;;;;;5074648;28;20031;-80
2020/12/09 13:56:35;;;;;;;15.48;9.77;;;;;;;;;;5071799;28;20073;-80
2020/12/09 13:59:03;;;;;;;15.98;9.90;;;;;;;;;;5074873;28;20051;-80
2020/12/09 14:01:29;;;;;;;13.80;8.73;;;;;;;;;;5074891;28;20025;-79
2020/12/09 14:06:19;;;;;;;18.77;11.60;;;;;;;;;;5111067;27;20393;-78
2020/12/09 14:08:45;;;;;;;22.13;10.85;;;;;;;;;;5114567;28;20081;-81
2020/12/09 14:11:10;;;;;;;20.38;11.55;;;;;;;;;;5112192;28;20027;-81
2020/12/09 14:13:36;;;;;;;26.73;13.77;;;;;;;;;;5097541;28;20070;-80
2020/12/09 14:16:02;;;;;;;37.50;19.52;;;;;;;;;;5102601;28;20036;-81
2020/12/09 14:18:48;;;;;;;37.42;22.02;;;;;;;;;;5107723;28;20035;-79
2020/12/09 14:21:19;;;;;;;31.10;16.42;;;;;;;;;;5107141;28;20031;-79
2020/12/09 14:27:24;;;;;;;15.68;10.05;;;;;;;;;;5102967;28;20548;-80
2020/12/09 14:33:55;;;;;;;19.35;11.88;;;;;;;;;;5059344;28;20044;-81
2020/12/09 14:37:01;;;;;;;20.85;12.60;;;;;;;;;;5064743;28;20036;-80
2020/12/09 14:39:46;;;;;;;23.25;14.18;;;;;;;;;;5038521;28;20041;-79
2020/12/09 14:45:56;;;;;;;20.40;11.57;;;;;;;;;;5064189;28;20036;-80
2020/12/09 14:48:43;;;;;;;17.40;10.80;;;;;;;;;;5054770;28;20096;-79
2020/12/09 14:51:11;;;;;;;16.60;11.30;;;;;;;;;;5109799;28;20020;-80
2020/12/09 14:53:40;;;;;;;17.17;11.40;;;;;;;;;;5098477;28;20032;-80
2020/12/09 14:56:07;;;;;;;17.85;11.50;;;;;;;;;;5112590;28;20028;-80
2020/12/09 14:58:40;;;;;;;19.60;12.40;;;;;;;;;;5115282;28;20435;-81
2020/12/09 15:09:11;;;;;;;18.80;12.20;;;;;;;;;;5086016;28;20394;-79
2020/12/09 15:11:38;;;;;;;19.15;10.90;;;;;;;;;;5081315;28;21199;-77
2020/12/09 15:14:04;;;;;;;18.92;12.52;;;;;;;;;;5072834;28;20068;-78
2020/12/09 15:16:30;;;;;;;20.73;13.40;;;;;;;;;;5071446;28;20029;-80
2020/12/09 15:18:56;;;;;;;19.85;13.65;;;;;;;;;;5079620;28;20024;-78
2020/12/09 15:21:25;;;;;;;20.33;12.15;;;;;;;;;;5076673;28;20035;-79
2020/12/09 15:23:52;;;;;;;18.02;12.25;;;;;;;;;;5081143;28;20040;-80
2020/12/09 15:26:18;;;;;;;18.15;11.23;;;;;;;;;;5086677;28;20047;-79
2020/12/09 15:28:44;;;;;;;25.50;14.20;;;;;;;;;;5077285;28;20503;-79
2020/12/09 15:31:12;;;;;;;22.88;13.85;;;;;;;;;;5076402;28;20092;-79
2020/12/09 15:33:57;;;;;;;23.48;13.90;;;;;;;;;;5073462;28;20062;-79
2020/12/09 15:36:55;;;;;;;23.40;15.10;;;;;;;;;;4997932;28;20165;-79
2020/12/09 15:54:56;;;;;;;20.10;11.77;;;;;;;;;;5059898;28;20134;-78
2020/12/09 15:57:22;;;;;;;21.60;13.38;;;;;;;;;;5070455;28;20032;-79
2020/12/09 15:59:48;;;;;;;36.70;22.42;;;;;;;;;;5068361;28;20106;-80
2020/12/09 16:02:14;;;;;;;26.50;16.73;;;;;;;;;;5075293;28;20627;-78
2020/12/09 16:04:40;;;;;;;23.00;13.73;;;;;;;;;;5078573;28;20068;-78
2020/12/09 16:07:06;;;;;;;23.17;14.82;;;;;;;;;;5082209;28;20674;-77
2020/12/09 16:09:33;;;;;;;19.52;12.77;;;;;;;;;;5078650;28;20033;-78
2020/12/09 16:11:59;;;;;;;21.63;13.93;;;;;;;;;;5090413;28;20024;-78
2020/12/09 16:14:25;;;;;;;24.98;15.18;;;;;;;;;;5078249;28;20017;-78
2020/12/09 16:16:55;;;;;;;23.38;14.75;;;;;;;;;;5085501;28;20080;-78
2020/12/09 16:19:21;;;;;;;28.67;17.77;;;;;;;;;;5072454;28;20093;-78
2020/12/09 16:21:47;;;;;;;28.40;17.98;;;;;;;;;;5067755;28;20029;-78
2020/12/09 16:24:13;;;;;;;25.00;15.68;;;;;;;;;;5063379;28;20028;-79
2020/12/09 16:26:50;;;;;;;25.88;15.82;;;;;;;;;;5061345;28;20036;-78
2020/12/09 16:32:41;;;;;;;30.08;17.13;;;;;;;;;;5064574;28;20028;-80
2020/12/09 16:35:07;;;;;;;32.53;19.55;;;;;;;;;;5061827;28;20025;-80
2020/12/09 16:37:33;;;;;;;28.58;15.90;;;;;;;;;;5064956;28;20132;-80
2020/12/09 16:39:58;;;;;;;30.92;17.10;;;;;;;;;;5057937;28;20033;-79
2020/12/09 16:42:24;;;;;;;28.67;16.80;;;;;;;;;;5057085;28;20075;-79
2020/12/09 16:44:52;;;;;;;27.60;14.90;;;;;;;;;;5057854;28;20025;-80
2020/12/09 16:47:18;;;;;;;32.22;18.20;;;;;;;;;;5066943;28;20033;-78
2020/12/09 16:49:46;;;;;;;30.58;16.05;;;;;;;;;;5070804;28;20051;-78
2020/12/09 16:52:37;;;;;;;31.52;17.63;;;;;;;;;;5064775;28;20020;-80
2020/12/09 16:58:46;;;;;;;33.90;19.13;;;;;;;;;;5046977;28;20040;-80
2020/12/09 17:01:56;;;;;;;27.75;15.52;;;;;;;;;;5025935;28;20063;-79
2020/12/09 17:05:07;;;;;;;24.63;16.15;;;;;;;;;;5004898;28;20101;-79
2020/12/09 17:08:04;;;;;;;57.65;28.27;;;;;;;;;;5013535;28;20072;-80
2020/12/09 17:11:17;;;;;;;35.17;20.00;;;;;;;;;;4967703;28;20042;-79
2020/12/09 17:20:54;;;;;;;27.50;17.23;;;;;;;;;;5050117;28;20027;-79
2020/12/09 17:23:41;;;;;;;30.15;18.33;;;;;;;;;;5037453;28;20401;-78
2020/12/09 17:26:12;;;;;;;28.45;18.08;;;;;;;;;;5038703;28;20033;-79
2020/12/09 17:28:38;;;;;;;24.48;14.13;;;;;;;;;;5005990;28;20047;-79
2020/12/09 17:31:04;;;;;;;22.40;13.15;;;;;;;;;;5035572;28;20060;-79
2020/12/09 17:33:30;;;;;;;31.17;18.40;;;;;;;;;;5056897;28;20044;-79
2020/12/09 17:36:05;;;;;;;33.72;23.65;;;;;;;;;;5062421;28;20024;-79
2020/12/09 17:38:31;;;;;;;28.20;17.92;;;;;;;;;;5058630;28;20040;-80
2020/12/09 17:44:25;;;;;;;41.15;22.85;;;;;;;;;;5064706;28;20051;-80
2020/12/09 17:46:54;;;;;;;44.70;23.77;;;;;;;;;;5058707;28;20037;-81
2020/12/09 17:49:20;;;;;;;67.07;38.15;;;;;;;;;;5062127;28;20025;-79
2020/12/09 17:51:49;;;;;;;48.35;29.35;;;;;;;;;;5059964;28;20032;-78
2020/12/09 17:54:15;;;;;;;35.25;22.27;;;;;;;;;;5059402;28;20025;-80
2020/12/09 17:56:41;;;;;;;46.13;27.38;;;;;;;;;;5064065;28;20024;-79
2020/12/09 17:59:43;;;;;;;53.47;27.13;;;;;;;;;;5053618;28;20036;-79
2020/12/09 18:02:35;;;;;;;37.42;19.13;;;;;;;;;;5041799;28;20084;-80
2020/12/09 18:05:20;;;;;;;26.75;16.13;;;;;;;;;;5006398;28;20044;-78
2020/12/09 18:07:46;;;;;;;25.27;15.68;;;;;;;;;;5068309;28;20416;-79
2020/12/09 18:10:12;;;;;;;24.63;15.60;;;;;;;;;;5062215;28;20028;-79
2020/12/09 18:12:38;;;;;;;24.58;16.48;;;;;;;;;;5065551;28;20032;-79
2020/12/09 18:17:23;;;;;;;30.90;19.33;;;;;;;;;;5081740;27;20354;-78
2020/12/09 18:19:48;;;;;;;24.83;15.95;;;;;;;;;;5073345;28;20362;-77
2020/12/09 18:22:21;;;;;;;30.38;16.40;;;;;;;;;;5076026;28;20029;-80
2020/12/09 18:24:50;;;;;;;41.00;19.40;;;;;;;;;;5074000;28;20029;-79
2020/12/09 18:27:26;;;;;;;41.88;20.50;;;;;;;;;;5074763;28;20063;-78
2020/12/09 18:29:58;;;;;;;30.73;17.88;;;;;;;;;;5076992;28;20028;-79
2020/12/09 18:32:53;;;;;;;32.85;17.77;;;;;;;;;;5079331;28;20124;-78
2020/12/09 18:35:50;;;;;;;24.83;14.77;;;;;;;;;;5077062;28;20090;-78
2020/12/09 18:38:40;;;;;;;36.22;19.13;;;;;;;;;;5078188;28;20029;-78
2020/12/09 18:41:31;;;;;;;37.85;19.33;;;;;;;;;;5067008;28;20046;-78
2020/12/09 18:44:03;;;;;;;31.15;17.27;;;;;;;;;;5073998;28;20067;-81
2020/12/09 18:49:16;;;;;;;44.35;21.70;;;;;;;;;;5068560;28;20765;-79
2020/12/09 18:52:24;;;;;;;41.47;19.52;;;;;;;;;;5063660;28;20041;-79
2020/12/09 18:55:08;;;;;;;43.95;22.80;;;;;;;;;;5060758;28;20116;-79
2020/12/09 18:58:35;;;;;;;33.28;21.13;;;;;;;;;;5067444;28;20032;-79
2020/12/09 19:01:35;;;;;;;23.58;13.85;;;;;;;;;;5058970;28;20036;-79
2020/12/09 19:04:46;;;;;;;24.15;12.52;;;;;;;;;;5059222;28;20029;-79
2020/12/09 19:07:38;;;;;;;23.42;14.15;;;;;;;;;;5065898;28;20058;-79
2020/12/09 19:10:19;;;;;;;19.63;11.30;;;;;;;;;;5063517;28;20029;-79
2020/12/09 19:13:15;;;;;;;19.63;12.95;;;;;;;;;;5060459;28;20033;-79
2020/12/09 19:16:22;;;;;;;30.90;13.18;;;;;;;;;;5057671;28;20037;-79
2020/12/09 19:19:38;;;;;;;23.90;14.30;;;;;;;;;;5050531;28;20037;-79
2020/12/09 19:26:06;;;;;;;22.45;13.52;;;;;;;;;;4997721;28;20408;-79
2020/12/09 19:29:22;;;;;;;22.17;12.75;;;;;;;;;;5041862;28;20041;-79
2020/12/09 19:31:54;;;;;;;21.63;12.93;;;;;;;;;;5027661;28;20040;-79
2020/12/09 19:35:01;;;;;;;20.40;11.85;;;;;;;;;;5031051;28;20546;-80
2020/12/09 19:37:29;;;;;;;23.42;14.10;;;;;;;;;;5048584;28;20036;-79
2020/12/09 19:39:56;;;;;;;22.83;12.43;;;;;;;;;;5053809;28;20117;-78
2020/12/09 19:42:25;;;;;;;24.38;14.23;;;;;;;;;;5062765;28;20029;-78
2020/12/09 19:45:03;;;;;;;21.70;12.07;;;;;;;;;;5059191;28;20136;-78
2020/12/09 19:47:33;;;;;;;25.13;13.65;;;;;;;;;;5061735;28;20056;-79
2020/12/09 19:50:23;;;;;;;20.63;12.60;;;;;;;;;;5065633;28;20040;-78
2020/12/09 19:52:52;;;;;;;23.95;13.82;;;;;;;;;;5076589;28;20044;-78
2020/12/09 19:55:39;;;;;;;24.50;15.27;;;;;;;;;;5077824;28;20496;-79
2020/12/09 19:58:33;;;;;;;20.95;13.02;;;;;;;;;;5072048;28;20550;-78
2020/12/09 20:01:08;;;;;;;19.10;11.35;;;;;;;;;;5053225;28;20037;-78
2020/12/09 20:03:55;;;;;;;23.88;12.57;;;;;;;;;;5069760;28;20118;-78
2020/12/09 20:06:44;;;;;;;20.77;12.27;;;;;;;;;;5050813;28;20039;-79
2020/12/09 20:09:17;;;;;;;25.02;14.88;;;;;;;;;;5047123;28;20040;-79
2020/12/09 20:11:50;;;;;;;23.40;13.10;;;;;;;;;;5054694;28;20053;-79
2020/12/09 20:14:24;;;;;;;21.27;12.35;;;;;;;;;;5045025;28;20111;-78
2020/12/09 20:17:03;;;;;;;22.08;12.10;;;;;;;;;;5052792;28;20029;-78
2020/12/09 20:19:50;;;;;;;21.73;13.13;;;;;;;;;;5054437;28;20029;-78
2020/12/09 20:22:32;;;;;;;19.10;11.80;;;;;;;;;;5042668;28;20396;-78
2020/12/09 20:25:00;;;;;;;20.90;10.32;;;;;;;;;;5051810;28;20037;-78
2020/12/09 20:27:35;;;;;;;18.50;11.18;;;;;;;;;;5048062;28;20080;-78
2020/12/09 20:30:36;;;;;;;26.63;14.33;;;;;;;;;;5050935;28;20064;-79
2020/12/09 20:33:04;;;;;;;21.02;11.65;;;;;;;;;;5050348;28;20492;-78
2020/12/09 20:35:31;;;;;;;29.50;15.75;;;;;;;;;;5055217;28;20111;-78
2020/12/09 20:37:58;;;;;;;25.50;14.25;;;;;;;;;;5042342;28;20029;-79
2020/12/09 20:40:27;;;;;;;20.90;13.25;;;;;;;;;;5026811;28;20094;-79
2020/12/09 20:43:32;;;;;;;23.00;12.70;;;;;;;;;;5048429;28;20063;-78
2020/12/09 20:46:49;;;;;;;20.65;11.35;;;;;;;;;;5049207;28;20029;-79
2020/12/09 20:52:32;;;;;;;22.63;13.63;;;;;;;;;;5046528;28;20083;-78
2020/12/09 20:55:39;;;;;;;23.52;14.35;;;;;;;;;;5034373;28;20025;-78
2020/12/09 21:01:30;;;;;;;26.65;15.43;;;;;;;;;;5037851;28;20044;-79
2020/12/09 21:04:17;;;;;;;22.52;12.77;;;;;;;;;;5056070;28;20041;-78
2020/12/09 21:07:04;;;;;;;22.02;13.10;;;;;;;;;;5045504;28;20057;-78
2020/12/09 21:09:54;;;;;;;23.00;14.93;;;;;;;;;;5050801;28;20033;-79
2020/12/09 21:12:34;;;;;;;20.15;12.73;;;;;;;;;;5041050;28;20041;-78
2020/12/09 21:18:38;;;;;;;20.70;12.80;;;;;;;;;;5056818;28;20064;-77
2020/12/09 21:21:32;;;;;;;20.48;11.60;;;;;;;;;;5052606;28;20132;-78
2020/12/09 21:24:25;;;;;;;18.27;10.70;;;;;;;;;;5043256;28;20041;-79
2020/12/09 21:27:48;;;;;;;21.38;11.90;;;;;;;;;;5045062;28;20508;-78
2020/12/09 21:30:18;;;;;;;24.95;14.13;;;;;;;;;;5043371;28;20029;-78
2020/12/09 21:32:45;;;;;;;19.40;12.23;;;;;;;;;;5035344;28;20513;-78
2020/12/09 21:35:15;;;;;;;26.67;14.13;;;;;;;;;;5040032;28;20500;-78
2020/12/09 21:37:47;;;;;;;29.17;16.65;;;;;;;;;;5045738;28;20044;-78
2020/12/09 21:40:33;;;;;;;33.33;19.08;;;;;;;;;;5045586;28;20037;-78
2020/12/09 21:42:59;;;;;;;40.42;21.73;;;;;;;;;;5042646;28;20033;-78
2020/12/09 21:45:25;;;;;;;30.42;17.75;;;;;;;;;;5043737;28;20524;-78
2020/12/09 21:48:10;;;;;;;28.75;16.33;;;;;;;;;;5046283;28;20557;-78
